Time;durP1;ratioP1;P1;durP2;ratioP2;P2;SDS_P1;SDS_P2;PMS_P1;PMS_P2;Temp;Humidity;BMP_temperature;BMP_pressure;BME280_temperature;BME280_humidity;BME280_pressure;Samples;Min_cycle;Max_cycle;Signal;HPM_P1;HPM_P2
2022/08/04 00:00:01;;;;;;;14.40;9.50;;;;;;;23.12;70.93;99240.22;4955306;29;20216;-90
2022/08/04 00:02:36;;;;;;;12.03;8.87;;;;;;;22.55;69.83;99147.78;4974011;28;20677;-92
2022/08/04 00:05:09;;;;;;;9.73;8.73;;;;;;;22.99;69.99;99212.78;4969099;28;20203;-90
2022/08/04 00:07:40;;;;;;;9.73;8.83;;;;;;;23.12;69.31;99249.69;4957864;29;20833;-88
2022/08/04 00:10:07;;;;;;;11.00;9.17;;;;;;;22.10;70.16;99097.38;4955681;29;20236;-88
2022/08/04 00:12:36;;;;;;;10.30;8.77;;;;;;;20.28;69.83;98830.63;4955790;29;20197;-88
2022/08/04 00:15:04;;;;;;;9.47;8.37;;;;;;;21.37;69.90;99004.22;4955636;29;20253;-88
2022/08/04 00:17:38;;;;;;;11.07;8.63;;;;;;;22.04;70.31;99129.22;4955472;29;20200;-90
2022/08/04 00:20:05;;;;;;;12.47;8.83;;;;;;;21.82;69.89;99085.50;4957006;29;20208;-90
2022/08/04 00:22:34;;;;;;;12.00;9.00;;;;;;;22.69;71.00;99252.63;4962698;29;20180;-89
2022/08/04 00:25:04;;;;;;;11.03;9.23;;;;;;;22.46;71.33;99212.34;5031093;23;20238;-89
2022/08/04 00:27:30;;;;;;;12.63;9.83;;;;;;;22.64;71.72;99236.31;5009878;28;20190;-87
2022/08/04 00:29:57;;;;;;;15.57;9.80;;;;;;;22.75;72.70;99256.88;4998732;28;20165;-90
2022/08/04 00:32:23;;;;;;;15.87;11.20;;;;;;;22.66;74.03;99262.13;4994566;28;20210;-91
2022/08/04 00:34:49;;;;;;;13.73;10.60;;;;;;;20.79;74.58;98947.00;4997386;28;20167;-91
2022/08/04 00:37:15;;;;;;;13.37;10.97;;;;;;;20.58;75.05;98915.34;4983262;28;20188;-91
2022/08/04 00:39:41;;;;;;;13.17;10.20;;;;;;;20.25;74.28;98858.91;4995892;28;20191;-87
2022/08/04 00:42:14;;;;;;;13.00;11.03;;;;;;;22.64;74.49;99262.13;4980130;28;20202;-89
2022/08/04 00:45:10;;;;;;;44.23;27.70;;;;;;;22.58;75.60;99269.03;4970035;28;20180;-89
2022/08/04 00:47:54;;;;;;;55.03;33.13;;;;;;;22.36;77.77;99268.28;4959234;28;20188;-90
2022/08/04 00:50:20;;;;;;;50.50;27.73;;;;;;;22.35;77.16;99261.44;4974725;28;20263;-89
2022/08/04 00:52:45;;;;;;;37.97;22.77;;;;;;;22.45;76.34;99257.91;4975929;28;20274;-90
2022/08/04 00:55:29;;;;;;;40.57;24.63;;;;;;;22.44;76.57;99263.97;4975714;28;20164;-90
2022/08/04 00:58:20;;;;;;;28.53;19.03;;;;;;;22.35;77.18;99256.25;4975500;28;20184;-89
2022/08/04 01:01:05;;;;;;;21.50;16.17;;;;;;;22.23;78.09;99266.63;4973825;28;20228;-89
2022/08/04 01:03:49;;;;;;;18.83;15.27;;;;;;;22.18;78.53;99265.81;4975903;28;20279;-91
2022/08/04 01:06:35;;;;;;;22.23;15.30;;;;;;;22.12;79.23;99260.66;4959558;28;20190;-89
2022/08/04 01:09:38;;;;;;;17.27;13.83;;;;;;;22.07;79.51;99260.72;4975349;28;20641;-90
2022/08/04 01:12:23;;;;;;;39.53;22.40;;;;;;;20.67;80.82;99035.38;4976118;28;20263;-88
2022/08/04 01:15:13;;;;;;;53.83;32.27;;;;;;;21.94;80.56;99259.06;4975157;28;20234;-90
2022/08/04 01:17:44;;;;;;;45.17;26.87;;;;;;;21.86;82.19;99267.63;4975010;28;20194;-90
2022/08/04 01:20:20;;;;;;;50.63;28.93;;;;;;;21.33;81.85;99163.03;4973713;28;20199;-92
2022/08/04 01:23:15;;;;;;;45.30;27.30;;;;;;;21.40;82.20;99180.19;4974906;28;20632;-89
2022/08/04 01:25:59;;;;;;;43.60;26.77;;;;;;;21.80;83.56;99259.94;4924200;29;20348;-89
2022/08/04 01:29:01;;;;;;;33.33;21.50;;;;;;;17.44;84.52;98548.59;4902613;29;20189;-90
2022/08/04 01:31:47;;;;;;;29.33;18.97;;;;;;;21.63;85.56;99267.72;4918318;29;20784;-87
2022/08/04 01:34:14;;;;;;;24.93;17.50;;;;;;;20.86;86.03;99170.84;4934474;29;20182;-90
2022/08/04 01:36:45;;;;;;;18.43;15.03;;;;;;;21.62;85.30;99274.56;4934986;29;20190;-87
2022/08/04 01:41:58;;;;;;;18.20;14.50;;;;;;;21.51;85.21;99254.84;4934372;29;20180;-88
2022/08/04 01:44:28;;;;;;;17.83;13.17;;;;;;;21.53;86.65;99268.59;4934546;29;20697;-90
2022/08/04 01:46:54;;;;;;;17.33;13.87;;;;;;;20.83;86.33;99150.25;4933750;29;20174;-91
2022/08/04 01:49:21;;;;;;;16.63;13.40;;;;;;;20.11;86.50;99032.00;4917808;29;20592;-91
2022/08/04 01:51:50;;;;;;;16.57;13.17;;;;;;;21.05;87.42;99218.84;4918030;29;20254;-91
2022/08/04 01:54:17;;;;;;;15.83;12.77;;;;;;;20.65;88.11;99158.00;4918107;29;20868;-89
2022/08/04 01:56:46;;;;;;;16.83;13.03;;;;;;;21.28;88.31;99260.06;4933067;29;20235;-90
2022/08/04 01:59:16;;;;;;;13.97;12.40;;;;;;;21.31;88.32;99254.91;4934006;29;20594;-87
2022/08/04 02:01:41;;;;;;;13.93;11.80;;;;;;;21.29;88.72;99254.03;4919612;29;20218;-88
2022/08/04 02:04:13;;;;;;;13.57;11.83;;;;;;;21.25;88.89;99254.91;4969998;28;20176;-91
2022/08/04 02:06:44;;;;;;;14.43;12.13;;;;;;;21.15;89.73;99253.22;4976974;28;20324;-89
2022/08/04 02:09:37;;;;;;;13.30;11.90;;;;;;;19.00;89.65;98894.91;4978958;28;20172;-89
2022/08/04 02:12:52;;;;;;;14.57;11.60;;;;;;;21.12;89.52;99253.22;4978664;28;20168;-90
2022/08/04 02:15:45;;;;;;;17.00;11.43;;;;;;;21.09;89.35;99260.94;4863495;29;20200;-90
2022/08/04 02:18:45;;;;;;;12.23;10.87;;;;;;;18.83;88.37;98859.81;4863918;29;20180;-89
2022/08/04 02:21:15;;;;;;;15.27;10.87;;;;;;;20.77;88.26;99201.72;4873428;29;20179;-89
2022/08/04 02:23:42;;;;;;;14.63;11.10;;;;;;;20.77;89.30;99222.28;4872153;29;20177;-90
2022/08/04 02:26:15;;;;;;;13.53;11.37;;;;;;;19.06;88.93;98944.53;4865373;29;20712;-90
2022/08/04 02:29:08;;;;;;;62.10;38.70;;;;;;;20.23;88.84;99112.53;4863253;29;20194;-88
2022/08/04 02:32:04;;;;;;;129.33;74.03;;;;;;;17.42;87.56;98611.66;4862236;29;20353;-90
2022/08/04 02:34:56;;;;;;;161.93;95.07;;;;;;;20.98;86.84;99235.19;4863284;29;20184;-89
2022/08/04 02:37:25;;;;;;;70.87;44.30;;;;;;;18.48;86.12;98804.19;4869648;29;20187;-91
2022/08/04 02:39:52;;;;;;;48.33;28.83;;;;;;;19.78;86.25;99061.06;4860755;29;20220;-89
2022/08/04 02:42:18;;;;;;;43.83;26.97;;;;;;;21.00;86.66;99291.78;4863024;29;20187;-89
2022/08/04 02:44:49;;;;;;;31.10;20.80;;;;;;;21.03;87.60;99274.66;4862103;29;20195;-87
2022/08/04 02:47:18;;;;;;;20.77;16.10;;;;;;;19.01;89.15;98963.34;4862025;29;20188;-90
2022/08/04 02:49:45;;;;;;;25.23;17.67;;;;;;;18.91;90.52;98969.25;4861733;29;20188;-89
2022/08/04 02:52:13;;;;;;;18.27;15.00;;;;;;;20.58;92.98;99248.88;4952765;28;20330;-88
2022/08/04 02:54:41;;;;;;;17.47;14.03;;;;;;;20.63;93.83;99266.91;4996042;28;20179;-89
2022/08/04 02:57:10;;;;;;;15.37;12.97;;;;;;;20.12;94.96;99211.91;4998494;28;20194;-91
2022/08/04 02:59:53;;;;;;;15.97;12.43;;;;;;;20.15;97.40;99258.19;4978878;28;20210;-91
2022/08/04 03:02:28;;;;;;;15.43;13.00;;;;;;;16.08;97.36;98606.50;4997848;28;20171;-89
2022/08/04 03:05:02;;;;;;;14.97;12.10;;;;;;;20.17;96.41;99265.88;4996981;28;20175;-90
2022/08/04 03:07:53;;;;;;;14.03;12.37;;;;;;;20.39;95.71;99273.69;5003748;28;20174;-90
2022/08/04 03:10:35;;;;;;;16.47;13.13;;;;;;;19.89;94.96;99172.41;4974246;29;20208;-88
2022/08/04 03:13:21;;;;;;;18.47;12.53;;;;;;;20.37;94.24;99265.13;4951224;29;20349;-91
2022/08/04 03:16:10;;;;;;;17.07;13.60;;;;;;;20.06;96.37;99272.69;4938898;29;20231;-90
2022/08/04 03:19:04;;;;;;;16.93;13.83;;;;;;;20.07;96.54;99274.44;4922630;29;20237;-90
2022/08/04 03:22:14;;;;;;;17.57;14.20;;;;;;;20.07;96.16;99275.28;4937109;29;20560;-88
2022/08/04 03:24:52;;;;;;;19.20;14.50;;;;;;;18.57;99.11;99081.09;4861063;29;20204;-88
2022/08/04 03:27:20;;;;;;;20.07;15.00;;;;;;;19.60;100.00;99276.78;4861718;29;20661;-87
2022/08/04 03:29:59;;;;;;;18.73;15.10;;;;;;;19.41;100.00;99281.81;4861218;29;20200;-90
2022/08/04 03:32:53;;;;;;;19.97;14.70;;;;;;;19.45;100.00;99279.28;4845690;29;20286;-90
2022/08/04 03:35:40;;;;;;;18.53;14.27;;;;;;;19.48;100.00;99276.69;4860993;29;20203;-90
2022/08/04 03:38:20;;;;;;;18.97;13.67;;;;;;;19.37;100.00;99277.47;4861596;29;20359;-90
2022/08/04 03:40:45;;;;;;;19.27;13.77;;;;;;;19.51;100.00;99282.72;4861404;29;20233;-90
2022/08/04 03:43:45;;;;;;;18.03;13.77;;;;;;;19.56;100.00;99281.03;4876143;29;20532;-90
2022/08/04 03:46:19;;;;;;;21.10;13.90;;;;;;;19.41;100.00;99286.09;4866499;29;20632;-88
2022/08/04 03:49:37;;;;;;;17.47;13.73;;;;;;;19.35;100.00;99278.31;4904701;29;20221;-90
2022/08/04 03:55:57;;;;;;;16.10;12.93;;;;;;;19.76;100.00;99279.44;4824474;29;20274;-91
2022/08/04 03:58:53;;;;;;;15.10;13.50;;;;;;;19.72;100.00;99279.44;4824898;29;20200;-89
2022/08/04 04:01:45;;;;;;;16.70;13.50;;;;;;;19.85;99.31;99276.06;4834052;29;20196;-89
2022/08/04 04:04:20;;;;;;;15.63;12.83;;;;;;;20.09;97.75;99280.44;4841665;29;20261;-90
2022/08/04 04:06:52;;;;;;;15.90;13.83;;;;;;;19.96;98.25;99280.41;4843719;29;20213;-90
2022/08/04 04:09:20;;;;;;;16.13;13.47;;;;;;;20.14;97.11;99282.16;4854427;29;20705;-90
2022/08/04 04:12:06;;;;;;;17.20;13.97;;;;;;;19.68;94.88;99134.69;4845556;29;20253;-90
2022/08/04 04:14:50;;;;;;;23.90;17.23;;;;;;;20.58;94.12;99285.75;4851502;29;20204;-88
2022/08/04 04:17:24;;;;;;;20.10;15.93;;;;;;;20.74;92.76;99285.78;4859087;29;20760;-91
2022/08/04 04:19:54;;;;;;;19.97;15.97;;;;;;;20.76;90.72;99237.75;4859368;29;20191;-89
2022/08/04 04:22:38;;;;;;;23.00;18.43;;;;;;;20.82;92.22;99294.38;4844692;29;20346;-90
2022/08/04 04:25:23;;;;;;;28.17;20.77;;;;;;;19.65;93.27;99138.97;4842610;29;20232;-89
2022/08/04 04:28:23;;;;;;;23.20;17.53;;;;;;;20.51;93.56;99294.31;4851400;28;20192;-89
2022/08/04 04:31:18;;;;;;;21.23;16.40;;;;;;;18.51;94.39;98999.00;4978641;28;20662;-89
2022/08/04 04:33:55;;;;;;;19.03;14.53;;;;;;;20.83;92.82;99301.22;4977905;28;20275;-91
2022/08/04 04:36:21;;;;;;;21.60;15.77;;;;;;;20.95;91.19;99298.66;4978755;28;20167;-91
2022/08/04 04:39:02;;;;;;;29.50;16.50;;;;;;;19.85;88.40;99073.09;4978870;28;20305;-92
2022/08/04 04:41:38;;;;;;;24.80;15.13;;;;;;;21.44;86.60;99304.69;4993773;28;20281;-89
2022/08/04 04:44:38;;;;;;;20.00;12.57;;;;;;;21.43;85.77;99300.38;4976884;28;20719;-89
2022/08/04 04:47:15;;;;;;;16.87;12.23;;;;;;;19.29;84.98;98935.16;4996378;28;20229;-87
2022/08/04 04:50:02;;;;;;;16.87;11.53;;;;;;;21.57;84.37;99302.06;4982173;28;20648;-88
2022/08/04 04:52:41;;;;;;;13.97;11.80;;;;;;;21.25;85.81;99306.41;4984610;28;20210;-90
2022/08/04 04:55:19;;;;;;;13.37;11.97;;;;;;;21.17;87.37;99303.84;4996762;28;20559;-91
2022/08/04 04:57:49;;;;;;;16.53;12.27;;;;;;;21.20;88.29;99309.84;4995299;28;20207;-92
2022/08/04 05:00:16;;;;;;;17.97;12.27;;;;;;;18.74;85.64;98828.16;4994769;28;20211;-91
2022/08/04 05:03:09;;;;;;;17.10;12.63;;;;;;;21.75;84.62;99299.44;4994178;28;20175;-90
2022/08/04 05:06:13;;;;;;;15.57;12.23;;;;;;;21.67;84.75;99306.34;4998033;28;20206;-89
2022/08/04 05:08:50;;;;;;;17.17;11.60;;;;;;;21.40;85.11;99313.28;4994986;28;20163;-91
2022/08/04 05:11:31;;;;;;;17.47;11.97;;;;;;;21.54;84.60;99304.66;4977512;28;20245;-90
2022/08/04 05:14:03;;;;;;;12.93;10.73;;;;;;;19.19;84.55;98930.88;4974060;28;20182;-91
2022/08/04 05:16:37;;;;;;;12.53;10.97;;;;;;;21.88;83.63;99313.19;4978142;28;20171;-89
2022/08/04 05:19:24;;;;;;;12.27;10.20;;;;;;;22.08;81.85;99318.28;4994633;28;20233;-91
2022/08/04 05:22:00;;;;;;;14.73;10.43;;;;;;;22.09;81.31;99314.84;4993614;28;20182;-90
2022/08/04 05:24:28;;;;;;;18.00;10.97;;;;;;;20.67;81.13;99143.41;4994260;28;20175;-90
2022/08/04 05:27:02;;;;;;;16.20;10.57;;;;;;;21.80;80.34;99299.44;4993166;28;20227;-90
2022/08/04 05:29:33;;;;;;;14.77;11.00;;;;;;;21.68;81.52;99325.25;4978814;28;20492;-92
2022/08/04 05:32:03;;;;;;;12.83;10.50;;;;;;;20.69;82.47;99221.44;4996368;28;20182;-90
2022/08/04 05:34:37;;;;;;;14.87;10.87;;;;;;;21.25;83.41;99327.00;4999806;28;20182;-91
2022/08/04 05:37:15;;;;;;;14.57;11.73;;;;;;;20.66;86.25;99305.50;5012695;28;20215;-88
2022/08/04 05:39:52;;;;;;;20.97;13.63;;;;;;;21.14;84.99;99329.59;4998520;28;20199;-89
2022/08/04 05:42:18;;;;;;;15.60;12.77;;;;;;;20.99;84.64;99300.34;5008355;28;20206;-91
2022/08/04 05:44:44;;;;;;;18.53;12.80;;;;;;;19.79;82.77;99030.25;4982229;28;20184;-90
2022/08/04 05:47:11;;;;;;;19.57;14.20;;;;;;;19.06;84.25;98947.09;5001454;28;20229;-92
2022/08/04 05:49:40;;;;;;;19.57;13.20;;;;;;;20.75;84.82;99246.31;4982718;28;20172;-92
2022/08/04 05:52:06;;;;;;;17.80;13.93;;;;;;;21.68;83.85;99328.69;4997776;28;20286;-90
2022/08/04 05:54:34;;;;;;;16.57;12.90;;;;;;;21.88;81.77;99333.81;4998993;28;20187;-92
2022/08/04 05:57:03;;;;;;;21.23;12.40;;;;;;;22.28;79.64;99326.78;4998586;28;20305;-91
2022/08/04 05:59:30;;;;;;;15.00;11.53;;;;;;;20.10;76.53;98889.78;4997971;28;20203;-89
2022/08/04 06:01:59;;;;;;;14.30;11.83;;;;;;;22.09;76.67;99206.53;4986389;28;20186;-91
2022/08/04 06:04:37;;;;;;;12.03;10.70;;;;;;;22.34;73.53;99157.38;4988976;28;20199;-89
2022/08/04 06:07:03;;;;;;;13.13;10.50;;;;;;;22.20;72.42;99107.63;5008597;28;20620;-89
2022/08/04 06:09:30;;;;;;;12.03;10.10;;;;;;;22.66;72.88;99182.94;5006984;28;20172;-90
2022/08/04 06:12:00;;;;;;;12.63;9.97;;;;;;;23.60;71.82;99315.56;5004565;28;20191;-88
2022/08/04 06:14:28;;;;;;;10.93;9.43;;;;;;;20.51;70.29;98773.94;4997946;28;20190;-90
2022/08/04 06:16:55;;;;;;;19.03;11.53;;;;;;;23.93;70.12;99326.41;4998460;28;20290;-91
2022/08/04 06:19:28;;;;;;;12.20;9.50;;;;;;;22.41;67.73;98998.25;5004521;28;20202;-92
2022/08/04 06:21:57;;;;;;;14.13;9.00;;;;;;;21.39;67.33;98840.22;5005182;28;20172;-91
2022/08/04 06:24:25;;;;;;;13.03;8.90;;;;;;;23.00;65.02;98976.94;4997574;28;20277;-91
2022/08/04 06:26:52;;;;;;;9.13;8.20;;;;;;;24.76;63.70;99308.09;4981985;28;20227;-91
2022/08/04 06:29:25;;;;;;;9.03;8.00;;;;;;;24.97;63.20;99306.06;4996932;28;20179;-90
2022/08/04 06:31:58;;;;;;;9.67;8.47;;;;;;;22.47;62.44;98868.34;4995935;28;20184;-91
2022/08/04 06:34:28;;;;;;;13.47;8.67;;;;;;;25.38;60.01;99276.03;4995786;28;20238;-90
2022/08/04 06:36:55;;;;;;;8.90;7.77;;;;;;;25.67;58.56;99286.75;4998016;28;20167;-89
2022/08/04 06:39:24;;;;;;;9.60;7.73;;;;;;;25.34;59.65;99298.56;4995896;28;20199;-90
2022/08/04 06:41:51;;;;;;;9.93;8.07;;;;;;;25.73;57.63;99295.28;4995742;28;20175;-91
2022/08/04 06:44:19;;;;;;;10.63;8.60;;;;;;;26.10;57.05;99305.78;4998362;28;20178;-89
2022/08/04 06:46:45;;;;;;;11.13;8.43;;;;;;;24.79;57.67;99096.59;4998408;28;20186;-91
2022/08/04 06:49:13;;;;;;;11.20;8.87;;;;;;;23.75;55.74;98889.72;4979547;28;20175;-89
2022/08/04 06:51:40;;;;;;;17.33;11.23;;;;;;;24.95;54.62;99087.66;4996478;28;20255;-90
2022/08/04 06:54:06;;;;;;;9.43;8.37;;;;;;;25.77;55.00;99200.09;4996279;28;20176;-90
2022/08/04 06:56:33;;;;;;;16.03;9.80;;;;;;;26.61;54.30;99295.19;4998327;28;20182;-91
2022/08/04 06:59:01;;;;;;;11.07;8.65;;;;;;;26.55;54.08;99222.63;4994736;28;20659;-88
2022/08/04 07:01:28;;;;;;;8.93;7.78;;;;;;;24.85;54.52;98997.22;4987072;28;20217;-91
2022/08/04 07:03:54;;;;;;;10.35;7.70;;;;;;;24.90;55.26;99065.31;4976708;28;20202;-90
2022/08/04 07:06:24;;;;;;;8.40;7.50;;;;;;;26.43;54.20;99296.44;4989424;28;20322;-89
2022/08/04 07:08:50;;;;;;;18.03;10.20;;;;;;;25.11;52.80;98988.03;4977060;28;20239;-91
2022/08/04 07:11:16;;;;;;;9.38;8.38;;;;;;;26.62;52.42;99260.53;4978699;28;20641;-89
2022/08/04 07:13:44;;;;;;;8.80;7.88;;;;;;;24.99;51.76;98918.38;4976101;28;20179;-89
2022/08/04 07:16:12;;;;;;;8.82;7.50;;;;;;;26.54;51.43;99150.78;4989344;28;20176;-90
2022/08/04 07:18:38;;;;;;;8.75;7.85;;;;;;;25.97;50.88;99069.94;4997055;28;20593;-91
2022/08/04 07:21:04;;;;;;;10.75;7.90;;;;;;;26.20;50.79;99111.81;4979504;28;20273;-90
2022/08/04 07:23:29;;;;;;;10.27;7.82;;;;;;;26.77;49.79;99115.56;4994538;28;20801;-91
2022/08/04 07:25:57;;;;;;;8.68;7.78;;;;;;;26.11;51.41;99130.16;4991220;28;20318;-90
2022/08/04 07:28:26;;;;;;;9.73;7.40;;;;;;;26.25;50.60;99115.16;4977992;28;20183;-89
2022/08/04 07:30:52;;;;;;;7.93;7.22;;;;;;;25.69;50.72;99068.00;4958792;28;20670;-92
2022/08/04 07:33:19;;;;;;;8.77;7.47;;;;;;;25.97;51.19;99107.13;4976478;28;20171;-90
2022/08/04 07:35:47;;;;;;;8.93;8.02;;;;;;;27.42;50.84;99311.44;4983248;28;20270;-89
2022/08/04 07:38:12;;;;;;;9.13;8.30;;;;;;;27.79;49.52;99261.03;4996792;28;20171;-91
2022/08/04 07:40:39;;;;;;;8.95;8.05;;;;;;;25.82;48.47;98871.47;4994637;28;20206;-90
2022/08/04 07:43:05;;;;;;;12.63;8.30;;;;;;;27.65;47.80;99161.72;4996025;28;20169;-89
2022/08/04 07:45:32;;;;;;;10.85;8.52;;;;;;;27.41;47.54;99085.25;4967793;28;20199;-91
2022/08/04 07:47:58;;;;;;;10.15;8.00;;;;;;;28.87;47.02;99310.81;4995430;28;20181;-90
2022/08/04 07:50:25;;;;;;;8.90;7.43;;;;;;;27.93;46.62;99136.59;5003192;28;20193;-90
2022/08/04 07:52:50;;;;;;;7.97;7.15;;;;;;;28.31;47.36;99346.34;5000286;28;20199;-92
2022/08/04 07:55:17;;;;;;;10.48;7.63;;;;;;;27.58;47.40;99136.78;4977916;28;20266;-89
2022/08/04 07:57:42;;;;;;;8.38;7.45;;;;;;;28.73;46.47;99310.38;4976191;28;20176;-90
2022/08/04 08:00:11;;;;;;;8.88;7.60;;;;;;;26.31;46.56;98913.41;4976558;28;20282;-90
2022/08/04 08:02:38;;;;;;;7.88;7.15;;;;;;;26.63;47.95;99023.31;4963941;28;20181;-91
2022/08/04 08:05:04;;;;;;;10.48;7.28;;;;;;;27.96;47.61;99227.59;5002358;28;20176;-91
2022/08/04 08:07:29;;;;;;;8.63;7.28;;;;;;;26.41;46.16;98876.78;5016196;28;20179;-89
2022/08/04 08:09:55;;;;;;;11.20;7.53;;;;;;;27.25;45.15;98887.22;5017800;28;20219;-89
2022/08/04 08:12:20;;;;;;;11.32;6.80;;;;;;;27.25;45.43;98941.81;4999023;28;20182;-89
2022/08/04 08:14:46;;;;;;;10.20;8.23;;;;;;;28.67;44.48;99168.97;5016139;28;20167;-90
2022/08/04 08:17:12;;;;;;;10.45;7.47;;;;;;;30.05;43.76;99291.13;5010450;28;20294;-89
2022/08/04 08:19:38;;;;;;;9.65;7.15;;;;;;;29.44;43.15;99113.25;4999488;28;20358;-91
2022/08/04 08:22:04;;;;;;;8.38;7.50;;;;;;;26.93;44.15;98801.63;4993952;28;20257;-91
2022/08/04 08:24:31;;;;;;;7.63;6.85;;;;;;;28.15;42.59;98908.56;4994107;28;20199;-90
2022/08/04 08:26:58;;;;;;;8.27;7.13;;;;;;;28.58;41.86;98880.06;4995113;28;20304;-92
2022/08/04 08:29:25;;;;;;;10.20;7.30;;;;;;;28.93;40.60;98902.19;4993545;28;20171;-91
2022/08/04 08:31:51;;;;;;;8.23;6.97;;;;;;;30.46;40.40;99156.31;4994135;28;20179;-90
2022/08/04 08:34:17;;;;;;;7.32;6.57;;;;;;;30.03;40.11;99102.28;4992860;28;20204;-92
2022/08/04 08:36:51;;;;;;;6.75;6.15;;;;;;;30.59;39.61;99194.09;4993411;28;20697;-90
2022/08/04 08:39:39;;;;;;;8.77;6.35;;;;;;;31.05;40.33;99284.59;4994208;28;20705;-91
2022/08/04 08:42:24;;;;;;;8.27;6.30;;;;;;;30.22;41.04;99280.88;4994722;28;20173;-91
2022/08/04 08:45:08;;;;;;;8.38;6.80;;;;;;;29.55;41.47;99141.56;4994655;28;20221;-90
2022/08/04 08:47:55;;;;;;;8.65;6.45;;;;;;;31.23;38.92;99283.84;4996014;28;20211;-91
2022/08/04 08:50:35;;;;;;;5.70;5.10;;;;;;;31.50;36.99;99282.72;4994937;28;20193;-91
2022/08/04 08:53:22;;;;;;;6.07;4.75;;;;;;;31.42;36.12;99279.53;4992996;28;20182;-89
2022/08/04 08:56:09;;;;;;;9.05;4.38;;;;;;;31.65;34.51;99284.66;4978336;28;20182;-92
2022/08/04 08:58:49;;;;;;;5.85;4.38;;;;;;;30.71;34.29;99096.88;4994919;28;20218;-91
2022/08/04 09:01:26;;;;;;;5.00;4.50;;;;;;;31.89;34.71;99277.50;4999480;28;20165;-92
2022/08/04 09:04:26;;;;;;;5.10;4.60;;;;;;;31.76;35.21;99268.47;4980887;28;20186;-89
2022/08/04 09:07:16;;;;;;;5.28;4.38;;;;;;;31.72;35.42;99266.91;4978037;28;20205;-90
2022/08/04 09:10:13;;;;;;;5.40;4.30;;;;;;;31.62;34.38;99263.00;4994836;28;20189;-91
2022/08/04 09:13:00;;;;;;;4.95;4.20;;;;;;;32.05;33.67;99261.06;4896687;29;20190;-91
2022/08/04 09:15:48;;;;;;;5.22;4.72;;;;;;;32.20;34.83;99263.84;4896430;29;20185;-92
2022/08/04 09:18:19;;;;;;;5.63;5.15;;;;;;;32.32;35.09;99258.06;4884759;29;20205;-90
2022/08/04 09:20:52;;;;;;;6.55;4.95;;;;;;;32.00;34.64;99252.53;4900478;29;20225;-91
2022/08/04 09:23:52;;;;;;;7.43;5.03;;;;;;;30.11;34.58;98943.53;4900497;29;20198;-90
2022/08/04 09:26:33;;;;;;;6.05;4.78;;;;;;;32.47;34.01;99244.25;4826025;29;20235;-92
2022/08/04 09:29:31;;;;;;;5.57;5.00;;;;;;;31.43;34.91;99148.59;4826076;29;20210;-91
2022/08/04 09:32:22;;;;;;;6.03;4.82;;;;;;;32.54;33.87;99250.91;4770911;30;20278;-89
2022/08/04 09:35:11;;;;;;;6.97;4.55;;;;;;;32.32;32.97;99180.28;4767121;30;20309;-91
2022/08/04 09:37:56;;;;;;;5.85;4.70;;;;;;;32.68;32.95;99238.84;4772765;30;20226;-91
2022/08/04 09:40:27;;;;;;;6.18;4.88;;;;;;;32.74;32.76;99184.38;4772326;30;20230;-92
2022/08/04 09:43:26;;;;;;;4.90;4.40;;;;;;;33.34;32.14;99249.53;4772253;30;20345;-89
2022/08/04 09:46:12;;;;;;;5.38;4.20;;;;;;;32.31;31.74;99246.72;4771628;30;20354;-91
2022/08/04 09:48:57;;;;;;;4.68;4.10;;;;;;;31.57;32.16;99165.47;4774470;29;20203;-90
2022/08/04 09:51:44;;;;;;;5.57;4.25;;;;;;;32.47;31.12;99140.22;4808172;29;20197;-91
2022/08/04 09:54:26;;;;;;;4.22;3.60;;;;;;;32.66;29.56;99121.84;4808273;29;20227;-91
2022/08/04 09:57:30;;;;;;;4.80;4.30;;;;;;;33.43;30.19;99156.34;4808009;29;20290;-91
2022/08/04 10:00:08;;;;;;;4.60;4.20;;;;;;;34.09;30.29;99234.16;4808146;29;20628;-92
2022/08/04 10:02:40;;;;;;;4.50;4.10;;;;;;;34.03;30.02;99237.13;4813556;29;20971;-92
2022/08/04 10:05:12;;;;;;;4.70;4.30;;;;;;;34.08;29.45;99210.59;4843957;29;20197;-91
2022/08/04 10:07:37;;;;;;;4.70;4.20;;;;;;;34.14;29.84;99239.19;4846131;29;20221;-92
2022/08/04 10:10:39;;;;;;;8.52;5.03;;;;;;;33.80;30.86;99235.72;4882442;29;20195;-91
2022/08/04 10:13:29;;;;;;;6.68;4.72;;;;;;;33.15;30.64;99230.41;4900427;29;20190;-91
2022/08/04 10:16:16;;;;;;;6.72;4.70;;;;;;;31.03;31.50;98888.91;4906825;29;20194;-90
2022/08/04 10:18:44;;;;;;;5.35;4.50;;;;;;;33.40;30.96;99214.25;4920847;29;20223;-91
2022/08/04 10:21:25;;;;;;;5.95;4.78;;;;;;;33.43;30.73;99219.34;4919685;29;20194;-90
2022/08/04 10:24:28;;;;;;;8.68;4.80;;;;;;;33.64;30.31;99212.97;4903714;29;20188;-92
2022/08/04 10:27:08;;;;;;;5.07;4.68;;;;;;;33.10;31.10;99214.88;4899393;29;20227;-90
2022/08/04 10:29:43;;;;;;;5.55;4.63;;;;;;;33.06;31.05;99116.28;4905099;29;20190;-88
2022/08/04 10:32:48;;;;;;;4.53;3.92;;;;;;;30.83;31.03;98725.94;4904807;29;20211;-90
2022/08/04 10:35:16;;;;;;;4.85;4.05;;;;;;;33.95;29.80;99215.66;4844884;29;20287;-90
2022/08/04 10:38:12;;;;;;;4.30;3.90;;;;;;;34.16;28.87;99209.25;4865752;29;20188;-92
2022/08/04 10:40:49;;;;;;;4.55;4.13;;;;;;;33.99;29.39;99200.56;4880528;29;20214;-88
2022/08/04 10:43:55;;;;;;;4.63;4.22;;;;;;;34.06;28.73;99200.16;4870939;29;20199;-91
2022/08/04 10:46:29;;;;;;;5.70;4.20;;;;;;;33.83;28.66;99166.41;4850962;29;20212;-90
2022/08/04 10:49:08;;;;;;;4.63;4.10;;;;;;;32.05;30.07;99034.91;4866162;29;20172;-89
2022/08/04 10:52:00;;;;;;;4.47;4.07;;;;;;;31.15;30.35;98797.59;4865549;29;20203;-90
2022/08/04 10:54:36;;;;;;;4.90;4.00;;;;;;;32.70;29.65;99042.06;4862588;29;20223;-92
2022/08/04 10:57:07;;;;;;;10.70;4.60;;;;;;;33.76;28.84;99157.19;4861953;29;20211;-91
2022/08/04 11:00:05;;;;;;;4.40;4.00;;;;;;;32.45;29.55;99011.00;4846633;29;20211;-90
2022/08/04 11:02:49;;;;;;;5.38;4.53;;;;;;;33.48;29.26;99186.66;4829252;29;20196;-91
2022/08/04 11:05:34;;;;;;;6.25;4.88;;;;;;;32.65;30.33;99177.81;4899793;29;20302;-91
2022/08/04 11:08:05;;;;;;;6.80;4.72;;;;;;;33.18;29.69;99188.25;4900324;28;20206;-91
2022/08/04 11:10:36;;;;;;;6.18;5.60;;;;;;;32.59;29.41;99084.59;4977211;28;20180;-90
2022/08/04 11:13:08;;;;;;;6.07;4.40;;;;;;;32.99;30.40;99166.50;4980054;28;20180;-88
2022/08/04 11:15:40;;;;;;;7.55;6.32;;;;;;;32.78;30.29;99165.78;4978881;28;20168;-88
2022/08/04 11:18:13;;;;;;;5.50;4.32;;;;;;;31.90;30.22;99033.84;4976288;28;20688;-92
2022/08/04 11:20:49;;;;;;;4.85;4.25;;;;;;;31.68;29.54;98912.75;4978892;28;20302;-90
2022/08/04 11:23:16;;;;;;;5.70;5.00;;;;;;;32.57;29.42;99006.94;4973664;28;20186;-92
2022/08/04 11:26:00;;;;;;;4.78;4.38;;;;;;;33.63;28.81;99128.09;4973758;28;20235;-90
2022/08/04 11:28:29;;;;;;;5.38;4.88;;;;;;;33.71;28.99;99164.44;4959954;28;20215;-90
2022/08/04 11:30:54;;;;;;;5.07;4.60;;;;;;;33.23;29.54;99157.38;4975132;28;20271;-89
2022/08/04 11:33:22;;;;;;;6.40;4.97;;;;;;;30.86;29.18;98686.59;4965411;28;20219;-91
2022/08/04 11:36:15;;;;;;;6.95;5.55;;;;;;;34.64;27.91;99154.84;4965035;28;20199;-92
2022/08/04 11:38:58;;;;;;;6.68;5.60;;;;;;;34.70;27.05;99123.75;4974106;28;20188;-88
2022/08/04 11:41:56;;;;;;;4.53;4.10;;;;;;;35.20;26.80;99060.22;4980059;28;20183;-90
2022/08/04 11:44:33;;;;;;;5.40;4.90;;;;;;;35.16;25.67;98944.69;4955497;29;20577;-91
2022/08/04 11:47:10;;;;;;;5.25;4.10;;;;;;;36.19;25.76;99139.09;4957199;29;20184;-91
2022/08/04 11:49:46;;;;;;;5.32;4.10;;;;;;;36.47;25.93;99140.75;4956287;29;20695;-91
2022/08/04 11:52:16;;;;;;;7.38;4.70;;;;;;;36.83;25.69;99137.50;4955366;29;20250;-90
2022/08/04 11:54:43;;;;;;;5.65;5.15;;;;;;;36.14;25.45;99137.69;4955587;29;20193;-90
2022/08/04 11:57:10;;;;;;;7.45;4.60;;;;;;;35.13;27.38;99147.56;4958748;29;20609;-90
2022/08/04 11:59:36;;;;;;;7.45;4.88;;;;;;;36.20;26.09;99139.94;4956327;29;20201;-90
2022/08/04 12:02:36;;;;;;;5.68;5.15;;;;;;;37.10;24.01;99082.81;4938605;29;20189;-90
2022/08/04 12:05:05;;;;;;;5.57;4.55;;;;;;;37.96;24.29;99132.16;4936120;29;20868;-90
2022/08/04 12:07:51;;;;;;;5.00;4.60;;;;;;;37.78;23.55;99136.94;4921169;29;20194;-89
2022/08/04 12:10:18;;;;;;;5.47;4.35;;;;;;;36.45;25.27;99127.66;4920615;29;20642;-90
2022/08/04 12:13:01;;;;;;;4.75;4.35;;;;;;;36.23;25.22;99087.88;4920602;29;20276;-92